Time;durP1;ratioP1;P1;durP2;ratioP2;P2;SDS_P1;SDS_P2;PMS_P1;PMS_P2;Temp;Humidity;BMP_temperature;BMP_pressure;BME280_temperature;BME280_humidity;BME280_pressure;Samples;Min_cycle;Max_cycle;Signal;HPM_P1;HPM_P2
2022/09/07 03:27:41;;;;;;;26.30;23.38;;;;;;;;;;6254379;22;20082;-92
2022/09/07 03:30:08;;;;;;;28.77;24.90;;;;;;;;;;6198300;23;20031;-91
2022/09/07 03:32:40;;;;;;;29.38;23.38;;;;;;;;;;6197228;23;20058;-92
2022/09/07 03:35:31;;;;;;;25.33;22.52;;;;;;;;;;6222365;23;20078;-92
2022/09/07 03:48:20;;;;;;;28.98;24.95;;;;;;;;;;6309635;22;20065;-88
2022/09/07 03:50:54;;;;;;;28.55;23.73;;;;;;;;;;6254567;22;20050;-90
2022/09/07 03:53:26;;;;;;;29.98;24.13;;;;;;;;;;6257377;22;20034;-89
2022/09/07 03:55:58;;;;;;;22.52;16.88;;;;;;;;;;6283886;22;20061;-90
2022/09/07 03:58:27;;;;;;;24.02;21.20;;;;;;;;;;6283729;22;20023;-90
2022/09/07 04:00:57;;;;;;;27.50;20.63;;;;;;;;;;6258710;22;20462;-89
2022/09/07 04:03:24;;;;;;;23.83;17.40;;;;;;;;;;6242161;22;20027;-89
2022/09/07 04:05:50;;;;;;;19.75;17.40;;;;;;;;;;6246271;22;20490;-89
2022/09/07 04:11:39;;;;;;;23.52;16.77;;;;;;;;;;6282489;22;20019;-91
2022/09/07 04:14:06;;;;;;;23.83;18.02;;;;;;;;;;6251346;22;21054;-90
2022/09/07 04:16:38;;;;;;;22.70;18.30;;;;;;;;;;6256911;22;20051;-91
2022/09/07 04:21:48;;;;;;;27.92;17.60;;;;;;;;;;6282336;22;20183;-93
2022/09/07 04:24:15;;;;;;;20.88;16.90;;;;;;;;;;6254867;22;20020;-92
2022/09/07 04:32:45;;;;;;;30.02;24.38;;;;;;;;;;6312190;22;20038;-90
2022/09/07 04:35:37;;;;;;;30.48;25.73;;;;;;;;;;6257426;22;20023;-92
2022/09/07 04:38:24;;;;;;;36.10;25.85;;;;;;;;;;6230232;22;20025;-90
2022/09/07 04:41:39;;;;;;;30.20;25.58;;;;;;;;;;6259775;22;20094;-92
2022/09/07 04:44:11;;;;;;;33.28;28.33;;;;;;;;;;6284259;22;20027;-91
2022/09/07 04:49:22;;;;;;;30.02;26.70;;;;;;;;;;6301297;22;19918;-91
2022/09/07 04:52:17;;;;;;;28.80;24.10;;;;;;;;;;6257866;22;20020;-92
2022/09/07 04:55:03;;;;;;;30.10;26.13;;;;;;;;;;6259594;22;20054;-92
2022/09/07 04:57:39;;;;;;;31.40;28.10;;;;;;;;;;6256850;22;20020;-91
2022/09/07 05:00:27;;;;;;;30.80;27.63;;;;;;;;;;6259988;22;20089;-91
2022/09/07 05:02:55;;;;;;;32.75;27.58;;;;;;;;;;6259007;22;20023;-91
2022/09/07 05:05:21;;;;;;;37.17;27.35;;;;;;;;;;6262603;22;20114;-92
2022/09/07 05:07:48;;;;;;;33.33;29.90;;;;;;;;;;6261907;22;20031;-92
2022/09/07 05:10:17;;;;;;;31.25;27.73;;;;;;;;;;6260594;22;20019;-92
2022/09/07 05:12:43;;;;;;;33.50;28.98;;;;;;;;;;6260288;22;20050;-92
2022/09/07 05:15:12;;;;;;;32.05;27.30;;;;;;;;;;6287302;22;20023;-92
2022/09/07 05:17:48;;;;;;;;;;;;;;;;;;;;;
2022/09/07 05:23:40;;;;;;;30.00;25.25;;;;;;;;;;6316831;22;20030;-92
2022/09/07 05:26:11;;;;;;;31.58;28.20;;;;;;;;;;6260378;22;20023;-93
2022/09/07 05:28:48;;;;;;;;;;;;;;;;;;;;;
2022/09/07 05:31:21;;;;;;;31.55;27.25;;;;;;;;;;6286851;22;20026;-92
2022/09/07 05:37:35;;;;;;;;;;;;;;;;;;;;;
2022/09/07 05:40:30;;;;;;;30.10;26.95;;;;;;;;;;6248507;23;20034;-94
2022/09/07 05:49:07;;;;;;;;;;;;;;;;;;;;;
2022/09/07 05:52:36;;;;;;;;;;;;;;;;;;;;;
2022/09/07 06:13:28;;;;;;;;;;;;;;;;;;;;;
2022/09/07 06:22:14;;;;;;;33.08;29.60;;;;;;;;;;6311469;22;20027;-91
2022/09/07 06:30:34;;;;;;;35.25;30.00;;;;;;;;;;6316522;22;20108;-92
2022/09/07 06:33:48;;;;;;;;;;;;;;;;;;;;;
2022/09/07 07:01:59;;;;;;;32.78;28.15;;;;;;;;;;6348369;22;20062;-92
2022/09/07 07:43:02;;;;;;;23.83;21.35;;;;;;;;;;6306843;22;20078;-93
2022/09/07 07:56:12;;;;;;;22.15;19.85;;;;;;;;;;6314310;22;20094;-89
2022/09/07 08:02:20;;;;;;;23.00;20.58;;;;;;;;;;6281670;22;20038;-91
2022/09/07 08:04:47;;;;;;;22.95;20.65;;;;;;;;;;6227444;22;20022;-90
2022/09/07 08:07:38;;;;;;;21.50;19.02;;;;;;;;;;6253101;22;20468;-89
2022/09/07 08:10:14;;;;;;;21.20;19.02;;;;;;;;;;6227088;22;20081;-91
2022/09/07 08:15:58;;;;;;;22.67;20.48;;;;;;;;;;6263694;22;20027;-92
2022/09/07 08:18:24;;;;;;;24.20;21.35;;;;;;;;;;6255773;22;20035;-91
2022/09/07 08:21:40;;;;;;;24.33;21.13;;;;;;;;;;6260134;22;20015;-90
2022/09/07 08:24:29;;;;;;;;;;;;;;;;;;;;;
2022/09/07 08:27:56;;;;;;;26.25;23.45;;;;;;;;;;6253295;22;20030;-92
2022/09/07 08:30:22;;;;;;;26.83;24.33;;;;;;;;;;6264067;22;20033;-91
2022/09/07 08:33:03;;;;;;;27.42;24.80;;;;;;;;;;6266870;22;20027;-92
2022/09/07 08:39:20;;;;;;;27.45;24.08;;;;;;;;;;6319532;22;20065;-91
2022/09/07 08:42:24;;;;;;;28.55;25.75;;;18.50;99.90;;;;;;6263527;22;20046;-90
2022/09/07 09:04:44;;;;;;;26.58;23.95;;;;;;;;;;6276500;22;20043;-87
2022/09/07 09:14:12;;;;;;;25.15;22.55;;;;;;;;;;6291776;22;20023;-90
2022/09/07 09:42:19;;;;;;;24.58;22.23;;;19.70;99.90;;;;;;6276558;22;20023;-90
2022/09/07 09:55:02;;;;;;;22.70;20.40;;;;;;;;;;6289889;22;20080;-89
2022/09/07 10:01:03;;;;;;;23.73;21.42;;;;;;;;;;6312960;22;20108;-88
2022/09/07 10:03:35;;;;;;;23.33;20.92;;;;;;;;;;6264538;22;20049;-86
2022/09/07 10:15:57;;;;;;;25.40;22.67;;;;;;;;;;6220650;23;20027;-89
2022/09/07 10:25:43;;;;;;;23.23;19.60;;;;;;;;;;6257599;22;20022;-89
2022/09/07 10:31:40;;;;;;;23.92;21.42;;;;;;;;;;6255758;22;20023;-88
2022/09/07 10:34:18;;;;;;;25.83;23.33;;;;;;;;;;6226236;22;20051;-85
2022/09/07 10:36:47;;;;;;;22.77;20.58;;;;;;;;;;6254103;22;20028;-88
2022/09/07 10:39:27;;;;;;;23.15;20.80;;;;;;;;;;6253741;22;20096;-88
2022/09/07 10:45:58;;;;;;;19.55;17.65;;;;;;;;;;6187443;23;20012;-90
2022/09/07 10:48:55;;;;;;;20.35;18.33;;;;;;;;;;6255057;22;20034;-86
2022/09/07 10:51:46;;;;;;;21.20;19.13;;;;;;;;;;6227333;22;20115;-88
2022/09/07 10:57:40;;;;;;;19.63;17.63;;;;;;;;;;6282075;22;20070;-86
2022/09/07 11:14:02;;;;;;;18.25;16.55;;;;;;;;;;6283201;22;20025;-87
2022/09/07 11:16:53;;;;;;;17.00;15.20;;;;;;;;;;6227659;22;20024;-89
2022/09/07 11:19:22;;;;;;;16.13;13.77;;;;;;;;;;6259862;22;20057;-88
2022/09/07 11:36:03;;;;;;;15.68;13.90;;;;;;;;;;6311287;22;20072;-89
2022/09/07 11:42:16;;;;;;;13.48;12.27;;;;;;;;;;6285482;22;20019;-89
2022/09/07 11:45:27;;;;;;;13.88;12.43;;;;;;;;;;6259123;22;20601;-88
2022/09/07 11:51:43;;;;;;;15.25;13.65;;;;;;;;;;6120642;23;20081;-92
2022/09/07 11:54:23;;;;;;;15.95;14.25;;;;;;;;;;6286169;22;20023;-87
2022/09/07 11:57:31;;;;;;;15.68;14.07;;;;;;;;;;6258108;22;20030;-90
2022/09/07 12:00:34;;;;;;;16.10;13.95;;;22.90;99.90;;;;;;6187573;23;20036;-89
2022/09/07 12:03:28;;;;;;;17.73;13.35;;;;;;;;;;6138385;23;20402;-88
2022/09/07 12:06:14;;;;;;;14.00;12.63;;;;;;;;;;6284656;22;20110;-86
2022/09/07 12:08:43;;;;;;;14.57;13.18;;;;;;;;;;6258537;22;20034;-88
2022/09/07 12:11:23;;;;;;;13.23;12.02;;;;;;;;;;6312210;22;20329;-87
2022/09/07 12:14:14;;;;;;;12.80;10.88;;;24.40;99.90;;;;;;6258584;22;20045;-88
2022/09/07 12:16:57;;;;;;;12.45;11.35;;;;;;;;;;6283815;22;20102;-87
2022/09/07 12:25:53;;;;;;;11.77;9.95;;;;;;;;;;6124072;23;20026;-87
2022/09/07 12:28:35;;;;;;;11.18;10.07;;;;;;;;;;6151484;22;20525;-88
2022/09/07 12:31:06;;;;;;;11.25;10.23;;;;;;;;;;6252746;22;20020;-87
2022/09/07 12:33:36;;;;;;;10.68;9.57;;;;;;;;;;6227840;22;20070;-87
2022/09/07 12:36:26;;;;;;;10.38;9.38;;;;;;;;;;6227518;22;20077;-92
2022/09/07 12:45:55;;;;;;;8.60;7.80;;;;;;;;;;6195547;22;20030;-92
2022/09/07 12:49:10;;;;;;;9.30;8.50;;;;;;;;;;6261133;22;20077;-89
2022/09/07 13:01:34;;;;;;;8.15;7.45;;;;;;;;;;6315704;22;20470;-92
2022/09/07 13:04:31;;;;;;;;;;;;;;;;;;;;;
2022/09/07 13:28:21;;;;;;;4.25;3.85;;;;;;;;;;6249915;23;20080;-84
2022/09/07 13:30:54;;;;;;;5.93;3.78;;;;;;;;;;6203859;23;20024;-89
2022/09/07 13:36:46;;;;;;;4.68;4.10;;;26.50;99.90;;;;;;6312640;22;20475;-90
2022/09/07 13:39:14;;;;;;;4.35;4.00;;;;;;;;;;6261529;22;20019;-88
2022/09/07 13:41:57;;;;;;;4.55;4.07;;;;;;;;;;6317594;22;20050;-85
2022/09/07 13:48:17;;;;;;;4.68;3.90;;;;;;;;;;6288712;22;20027;-89
2022/09/07 14:00:28;;;;;;;5.53;4.13;;;;;;;;;;6289360;22;20069;-90
2022/09/07 14:02:54;;;;;;;6.10;4.10;;;;;;;;;;6264403;22;20078;-91
2022/09/07 14:05:36;;;;;;;3.60;2.95;;;;;;;;;;6226751;23;20091;-89
2022/09/07 14:08:02;;;;;;;3.00;2.70;;;;;;;;;;6253596;23;20032;-90
2022/09/07 14:13:59;;;;;;;3.25;2.53;;;;;;;;;;6250465;23;20095;-89
2022/09/07 14:16:47;;;;;;;4.38;3.40;;;;;;;;;;6225934;23;20028;-91
2022/09/07 14:22:45;;;;;;;10.38;9.38;;;;;;;;;;6225857;23;20078;-89
2022/09/07 14:25:21;;;;;;;11.73;8.90;;;;;;;;;;6224351;23;20080;-91
2022/09/07 14:28:03;;;;;;;11.13;9.90;;;;;;;;;;6306410;22;20023;-90
2022/09/07 14:30:32;;;;;;;12.52;11.30;;;;;;;;;;6287582;22;20208;-89
2022/09/07 14:33:20;;;;;;;13.45;12.05;;;;;;;;;;6289214;22;20447;-86
2022/09/07 14:36:09;;;;;;;11.68;10.57;;;;;;;;;;6286598;22;20027;-90
2022/09/07 14:41:51;;;;;;;12.50;11.15;;;;;;;;;;6313608;22;20079;-92
2022/09/07 14:45:10;;;;;;;13.95;12.57;;;;;;;;;;6188046;23;20021;-90
2022/09/07 14:51:46;;;;;;;18.40;12.88;;;;;;;;;;6189057;23;20039;-87
2022/09/07 14:54:50;;;;;;;13.10;11.95;;;;;;;;;;6185407;23;20032;-94
2022/09/07 15:00:53;;;;;;;13.95;12.75;;;;;;;;;;6187528;23;20021;-93
2022/09/07 15:05:56;;;;;;;13.88;12.50;;;;;;;;;;6316680;22;20034;-93
2022/09/07 15:08:42;;;;;;;14.52;13.13;;;;;;;;;;6284139;22;20030;-92
2022/09/07 15:11:29;;;;;;;15.02;13.57;;;;;;;;;;6260822;22;20019;-90
2022/09/07 15:14:36;;;;;;;14.55;13.15;;;;;;;;;;6246511;23;20047;-92
2022/09/07 15:17:17;;;;;;;16.50;14.75;;;;;;;;;;6197207;23;20024;-91
2022/09/07 15:19:43;;;;;;;16.83;13.75;;;;;;;;;;6195756;23;20028;-91
2022/09/07 15:22:11;;;;;;;14.65;12.85;;;;;;;;;;6225392;23;20035;-92
2022/09/07 15:28:12;;;;;;;;;;;;;;;;;;6318361;22;20022;-96
2022/09/07 15:30:38;;;;;;;16.85;14.88;;;;;;;;;;6268421;22;19915;-92
2022/09/07 15:33:05;;;;;;;16.48;14.63;;;;;;;;;;6317609;22;20011;-91
2022/09/07 15:35:31;;;;;;;16.55;14.98;;;;;;;;;;6266241;22;20045;-94
2022/09/07 15:38:03;;;;;;;17.70;16.00;;;;;;;;;;6288362;22;20022;-91
2022/09/07 15:40:31;;;;;;;17.77;15.20;;;;;;;;;;6291092;22;20034;-93
2022/09/07 15:42:57;;;;;;;17.88;15.40;;;;;;;;;;6289432;22;20018;-91
2022/09/07 15:45:23;;;;;;;16.40;14.60;;;;;;;;;;6315011;22;20042;-93
2022/09/07 15:47:50;;;;;;;16.20;14.48;;;;;;;;;;6261911;22;20020;-96
2022/09/07 15:50:16;;;;;;;16.58;14.00;;;;;;;;;;6315252;22;20048;-83
2022/09/07 15:52:42;;;;;;;14.07;12.63;;;;;;;;;;6287420;22;20110;-92
2022/09/07 15:55:10;;;;;;;14.38;12.90;;;;;;;;;;6287222;22;20015;-85
2022/09/07 15:57:36;;;;;;;19.33;15.77;;;;;;;;;;6312949;22;20102;-90
2022/09/07 16:00:05;;;;;;;15.45;13.82;;;;;;;;;;6261424;22;20038;-91
2022/09/07 16:02:31;;;;;;;20.13;18.05;;;;;;;;;;6313077;22;20031;-90
2022/09/07 16:04:57;;;;;;;25.35;22.20;;;;;;;;;;6283803;22;20433;-86
2022/09/07 16:07:24;;;;;;;61.03;52.28;;;;;;;;;;6306657;22;20019;-84
2022/09/07 16:10:06;;;;;;;16.38;14.70;;;;;;;;;;6278882;22;20027;-83
2022/09/07 16:12:34;;;;;;;68.22;60.92;;;;;;;;;;6282158;22;20046;-82
2022/09/07 16:15:00;;;;;;;18.67;16.67;;;;;;;;;;6306737;22;20026;-82
2022/09/07 16:24:12;;;;;;;16.95;14.20;;;;;;;;;;6313523;22;20077;-82
2022/09/07 16:26:38;;;;;;;21.00;14.88;;;;;;;;;;6308756;22;20102;-82
2022/09/07 16:29:04;;;;;;;17.00;15.30;;;;;;;;;;6281264;22;20019;-82
2022/09/07 16:31:30;;;;;;;17.48;15.30;;;;;;;;;;6281677;22;20080;-83
2022/09/07 16:33:57;;;;;;;16.52;14.27;;;;;;;;;;6310721;22;20015;-85
2022/09/07 16:36:23;;;;;;;15.95;14.35;;;;;;;;;;6310073;22;20569;-83
2022/09/07 16:38:57;;;;;;;15.23;13.60;;;;;;;;;;6280087;22;20027;-81
2022/09/07 16:44:46;;;;;;;12.43;11.13;;;;;;;;;;6311472;22;20040;-82
2022/09/07 16:47:12;;;;;;;12.43;11.23;;;;;;;;;;6260694;22;20090;-81
2022/09/07 16:49:44;;;;;;;12.57;10.63;;;;;;;;;;6282648;22;20026;-82
2022/09/07 16:52:10;;;;;;;11.05;9.90;;;;;;;;;;6307840;22;20027;-82
2022/09/07 16:54:36;;;;;;;10.20;8.98;;;;;;;;;;6256336;22;20011;-83
2022/09/07 16:57:02;;;;;;;10.88;9.88;;;;;;;;;;6254529;22;20031;-84
2022/09/07 16:59:45;;;;;;;12.30;11.20;;;;;;;;;;6309629;22;20093;-83
2022/09/07 17:02:33;;;;;;;16.70;14.82;;;;;;;;;;6306324;22;20027;-83
2022/09/07 17:05:00;;;;;;;17.88;15.70;;;;;;;;;;6279789;22;20398;-83
2022/09/07 17:07:26;;;;;;;20.63;16.17;;;;;;;;;;6255309;22;20065;-82
2022/09/07 17:09:53;;;;;;;20.13;15.60;;;;;;;;;;6281430;22;20413;-80
2022/09/07 17:12:20;;;;;;;18.60;16.73;;;;;;;;;;6305871;22;20114;-81
2022/09/07 17:14:55;;;;;;;17.63;15.80;;;;;;;;;;6307085;22;20019;-81
2022/09/07 17:17:25;;;;;;;18.13;16.42;;;;;;;;;;6302729;22;20192;-81
2022/09/07 17:19:51;;;;;;;16.95;15.32;;;;;;;;;;6307278;22;20023;-84
2022/09/07 17:22:20;;;;;;;17.20;14.75;;;;;;;;;;6276744;22;20474;-80
2022/09/07 17:28:05;;;;;;;17.08;15.27;;;;;;;;;;6305596;22;20349;-82
2022/09/07 17:30:32;;;;;;;17.08;15.35;;;;;;;;;;6306740;22;20077;-79
2022/09/07 17:32:59;;;;;;;18.25;16.27;;;;;;;;;;6277761;22;20020;-79
2022/09/07 17:35:50;;;;;;;17.77;15.90;;;;;;;;;;6279498;22;20037;-85
2022/09/07 17:38:19;;;;;;;15.25;13.85;;;;;;;;;;6251070;22;20483;-82
2022/09/07 17:40:46;;;;;;;15.95;14.25;;;;;;;;;;6279622;22;20030;-83
2022/09/07 17:43:12;;;;;;;16.17;14.60;;;;;;;;;;6250702;22;20031;-80
2022/09/07 17:45:38;;;;;;;15.60;13.73;;;;;;;;;;6308917;22;20054;-87
2022/09/07 17:48:05;;;;;;;15.25;13.68;;;;;;;;;;6305832;22;20023;-82
2022/09/07 17:50:31;;;;;;;18.80;14.20;;;;;;;;;;6305940;22;20034;-80
2022/09/07 17:53:03;;;;;;;13.88;12.52;;;;;;;;;;6251813;22;20019;-82
2022/09/07 17:55:30;;;;;;;17.30;14.18;;;;;;;;;;6280498;22;20031;-83
2022/09/07 18:01:23;;;;;;;16.33;14.68;;;;;;;;;;6264187;22;20469;-87
2022/09/07 18:03:50;;;;;;;20.70;15.93;;;;;;;;;;6282622;22;20042;-82
2022/09/07 18:06:17;;;;;;;18.10;15.38;;;;;;;;;;6309592;22;20072;-81
2022/09/07 18:15:44;;;;;;;18.38;15.35;;;;;;;;;;6188613;23;20104;-82
2022/09/07 18:18:11;;;;;;;14.65;13.10;;;;;;;;;;6135155;23;20029;-91
2022/09/07 18:21:08;;;;;;;11.00;8.65;;;;;;;;;;6187116;23;20040;-82
2022/09/07 18:23:34;;;;;;;11.25;9.77;;;;;;;;;;6297350;22;20038;-86
2022/09/07 18:26:00;;;;;;;10.30;9.30;;;;;;;;;;6280416;22;20030;-83
2022/09/07 18:35:21;;;;;;;11.75;7.18;;;;;;;;;;6316525;22;20033;-81
2022/09/07 18:37:50;;;;;;;9.60;6.75;;;;;;;;;;6260428;22;20057;-83
2022/09/07 18:40:17;;;;;;;6.38;5.65;;;;;;;;;;6287912;22;20127;-82
2022/09/07 18:42:44;;;;;;;5.25;4.80;;;;;;;;;;6286023;22;20023;-81
2022/09/07 18:45:10;;;;;;;4.40;3.20;;;;;;;;;;6284342;22;20027;-84
2022/09/07 18:47:59;;;;;;;9.25;3.75;;;;;;;;;;6282140;22;20524;-81
2022/09/07 18:53:47;;;;;;;5.57;3.22;;;;;;;;;;6310691;22;20034;-87
2022/09/07 18:56:18;;;;;;;4.07;2.67;;;;;;;;;;6257045;22;20097;-83
2022/09/07 18:59:08;;;;;;;6.47;2.60;;;;;;;;;;6283150;22;20023;-84
2022/09/07 19:01:37;;;;;;;3.85;2.10;;;;;;;;;;6282740;22;20051;-87
2022/09/07 19:04:04;;;;;;;3.45;2.20;;;;;;;;;;6285610;22;20079;-85
2022/09/07 19:06:31;;;;;;;2.30;2.00;;;;;;;;;;6311833;22;20031;-84
2022/09/07 19:08:58;;;;;;;3.20;2.38;;;;;;;;;;6255681;22;20019;-85
2022/09/07 19:23:32;;;;;;;3.33;2.20;;;;;;;;;;6306590;22;20019;-86
2022/09/07 19:25:59;;;;;;;5.95;1.83;;;;;;;;;;6309298;22;20023;-85
2022/09/07 19:28:40;;;;;;;3.35;2.10;;;;;;;;;;6250615;22;20023;-83
2022/09/07 19:31:12;;;;;;;3.00;2.13;;;;;;;;;;6279870;22;20098;-85
2022/09/07 19:33:38;;;;;;;4.07;2.40;;;;;;;;;;6304251;22;20019;-87
2022/09/07 19:36:24;;;;;;;3.97;2.47;;;;;;;;;;6278958;22;20440;-87
2022/09/07 19:38:51;;;;;;;2.42;2.10;;;;;;;;;;6277445;22;20336;-81
2022/09/07 19:41:17;;;;;;;5.88;2.30;;;;;;;;;;6306966;22;20050;-84
2022/09/07 19:43:45;;;;;;;3.63;2.65;;;;;;;;;;6276863;22;20054;-85
2022/09/07 19:46:40;;;;;;;3.30;1.90;;;;;;;;;;6305960;22;20431;-83
2022/09/07 19:51:36;;;;;;;4.40;2.08;;;;;;;;;;6307912;22;20061;-82
2022/09/07 19:54:02;;;;;;;3.20;1.70;;;;;;;;;;6253585;22;20054;-83
2022/09/07 19:56:28;;;;;;;3.05;1.60;;;;;;;;;;6277031;22;20102;-84
2022/09/07 19:58:54;;;;;;;3.08;1.60;;;;;;;;;;6277346;22;20038;-84
2022/09/07 20:01:23;;;;;;;2.47;1.27;;;;;;;;;;6276710;22;20019;-81
2022/09/07 20:03:56;;;;;;;3.67;1.63;;;;;;;;;;6304611;22;20023;-82
2022/09/07 20:06:22;;;;;;;4.50;1.30;;;;;;;;;;6276760;22;20027;-80
2022/09/07 20:08:48;;;;;;;2.38;1.30;;;;;;;;;;6279892;22;20034;-85
2022/09/07 20:11:15;;;;;;;4.80;1.58;;;;;;;;;;6227134;22;20023;-82
2022/09/07 20:13:42;;;;;;;8.30;1.73;;;;;;;;;;6280685;22;20104;-83
2022/09/07 20:16:10;;;;;;;6.93;1.25;;;;;;;;;;6279691;22;20108;-85
2022/09/07 20:18:36;;;;;;;4.20;1.70;;;;;;;;;;6284727;22;20023;-82
2022/09/07 20:21:06;;;;;;;7.60;1.77;;;;;;;;;;6304940;22;20027;-84
2022/09/07 20:23:33;;;;;;;6.20;1.80;;;;;;;;;;6305407;22;20025;-82
2022/09/07 20:26:01;;;;;;;6.38;1.48;;;;;;;;;;6252951;22;20023;-81
2022/09/07 20:28:28;;;;;;;5.30;1.67;;;;;;;;;;6307835;22;20404;-83
2022/09/07 20:30:54;;;;;;;8.57;1.88;;;;;;;;;;6281337;22;20027;-87
2022/09/07 20:33:21;;;;;;;7.60;2.10;;;;;;;;;;6306840;22;20023;-86
2022/09/07 20:35:48;;;;;;;6.97;1.90;;;;;;;;;;6281359;22;20027;-84
2022/09/07 20:38:15;;;;;;;12.32;2.45;;;;;;;;;;6279269;22;20027;-81
2022/09/07 20:40:54;;;;;;;9.35;2.65;;;;;;;;;;6306707;22;20140;-87
2022/09/07 20:43:20;;;;;;;7.88;3.00;;;;;;;;;;6251191;22;20034;-83
2022/09/07 20:45:47;;;;;;;10.27;4.13;;;;;;;;;;6250006;22;20026;-86
2022/09/07 20:48:13;;;;;;;8.05;3.97;;;;;;;;;;6251242;22;20023;-83
2022/09/07 20:50:39;;;;;;;11.70;6.20;;;;;;;;;;6249072;22;20057;-83
2022/09/07 20:53:31;;;;;;;16.00;8.13;;;;;;;;;;6303329;22;20023;-84
2022/09/07 20:56:02;;;;;;;19.30;12.32;;;;;;;;;;6277945;22;20098;-84
2022/09/07 20:58:28;;;;;;;20.35;15.13;;;;;;;;;;6277676;22;20026;-83
2022/09/07 21:00:54;;;;;;;23.85;19.60;;;;;;;;;;6251626;22;20024;-82
2022/09/07 21:03:21;;;;;;;25.80;22.00;;;;;;;;;;6223529;22;20160;-82
2022/09/07 21:05:47;;;;;;;27.48;24.58;;;;;;;;;;6277090;22;20455;-84
2022/09/07 21:08:13;;;;;;;31.20;27.45;;;;;;;;;;6249923;22;20098;-86
2022/09/07 21:17:24;;;;;;;39.10;35.00;;;;;;;;;;6297307;22;20037;-84
2022/09/07 21:19:50;;;;;;;40.83;36.60;;;;;;;;;;6278921;22;20023;-86
2022/09/07 21:22:16;;;;;;;39.67;35.67;;;;;;;;;;6305350;22;20034;-84
2022/09/07 21:25:01;;;;;;;40.47;35.13;;;;;;;;;;6252166;22;20059;-85
2022/09/07 21:27:27;;;;;;;37.53;33.70;;;;;;;;;;6279345;22;20088;-84
2022/09/07 21:29:53;;;;;;;37.30;33.50;;;;;;;;;;6279695;22;20403;-87
2022/09/07 21:32:19;;;;;;;39.72;35.55;;;;;;;;;;6277649;22;20054;-87
2022/09/07 21:34:45;;;;;;;39.10;35.08;;;;;;;;;;6276726;22;20050;-88
2022/09/07 21:37:11;;;;;;;40.65;36.40;;;;;;;;;;6251491;22;20015;-88
2022/09/07 21:39:37;;;;;;;42.13;37.70;;;;;;;;;;6304093;22;20053;-85
2022/09/07 21:42:09;;;;;;;37.58;33.83;;;;;;;;;;6305071;22;20030;-86
2022/09/07 21:44:36;;;;;;;39.60;35.30;;;;;;;;;;6304657;22;20019;-87
2022/09/07 21:47:02;;;;;;;43.25;38.67;;;;;;;;;;6274237;22;20452;-85
2022/09/07 21:49:28;;;;;;;42.20;37.70;;;;;;;;;;6249744;22;20471;-87
2022/09/07 21:51:54;;;;;;;43.50;38.83;;;;;;;;;;6274627;22;20031;-83
2022/09/07 21:54:20;;;;;;;41.10;36.80;;;;;;;;;;6302459;22;20599;-85
2022/09/07 21:56:46;;;;;;;43.13;37.90;;;;;;;;;;6302417;22;20703;-84
2022/09/07 21:59:13;;;;;;;39.28;34.95;;;;;;;;;;6274991;22;20332;-85
2022/09/07 22:01:39;;;;;;;42.00;35.65;;;;;;;;;;6252405;22;20027;-85
2022/09/07 22:04:05;;;;;;;38.92;34.33;;;;;;;;;;6249591;22;20382;-86
2022/09/07 22:06:32;;;;;;;39.55;35.25;;;;;;;;;;6257373;22;20266;-85
2022/09/07 22:08:58;;;;;;;37.15;33.38;;;;;;;;;;6274825;22;20023;-87
2022/09/07 22:11:25;;;;;;;36.58;32.63;;;;;;;;;;6279526;22;20405;-88
2022/09/07 22:13:56;;;;;;;37.67;33.13;;;;;;;;;;6276322;22;20023;-87
2022/09/07 22:16:22;;;;;;;33.03;29.73;;;;;;;;;;6273611;22;20053;-85
2022/09/07 22:18:49;;;;;;;34.05;30.45;;;;;;;;;;6272163;22;20031;-88
2022/09/07 22:21:23;;;;;;;33.08;29.55;;;;;;;;;;6273838;22;20019;-85
2022/09/07 22:23:51;;;;;;;34.67;31.10;;;;;;;;;;6273004;22;20023;-86
2022/09/07 22:26:18;;;;;;;33.42;28.40;;;;;;;;;;6248808;22;20110;-85
2022/09/07 22:28:44;;;;;;;32.58;29.17;;;;;;;;;;6250394;22;20061;-85
2022/09/07 22:31:18;;;;;;;31.08;27.88;;;;;;;;;;6273952;22;20054;-85
2022/09/07 22:33:48;;;;;;;31.40;28.20;;;;;;;;;;6250281;22;20362;-85
2022/09/07 22:36:14;;;;;;;30.98;27.83;;;;;;;;;;6246234;22;20463;-86
2022/09/07 22:38:41;;;;;;;32.13;28.20;;;;;;;;;;6273057;22;20051;-85
2022/09/07 22:41:07;;;;;;;32.97;29.35;;;;;;;;;;6250440;22;20023;-86
2022/09/07 22:43:33;;;;;;;31.38;28.20;;;;;;;;;;6248569;22;20019;-85
2022/09/07 22:46:01;;;;;;;31.30;27.75;;;;;;;;;;6245356;22;20072;-88
2022/09/07 22:48:27;;;;;;;33.35;28.13;;;;;;;;;;6273469;22;20475;-87
2022/09/07 22:53:58;;;;;;;;;;;18.60;99.90;;;;;;6302875;22;20023;-87
2022/09/07 22:56:26;;;;;;;30.25;26.13;;;;;;;;;;6303135;22;19918;-86
2022/09/07 22:58:53;;;;;;;30.60;26.58;;;;;;;;;;6275472;22;20842;-89
2022/09/07 23:01:20;;;;;;;29.90;26.02;;;;;;;;;;6303543;22;20424;-87
2022/09/07 23:06:20;;;;;;;33.28;25.63;;;;;;;;;;6303630;22;20030;-84
2022/09/07 23:09:12;;;;;;;26.25;23.50;;;18.60;99.90;;;;;;6275484;22;20023;-83
2022/09/07 23:11:38;;;;;;;27.30;22.88;;;;;;;;;;6273854;22;20062;-86
2022/09/07 23:17:20;;;;;;;25.70;22.98;;;;;;;;;;6301426;22;20026;-86
2022/09/07 23:19:47;;;;;;;25.27;21.23;;;;;;;;;;6247316;22;20030;-87
2022/09/07 23:22:14;;;;;;;21.13;18.80;;;;;;;;;;6272319;22;20081;-85
2022/09/07 23:24:40;;;;;;;20.65;18.45;;;;;;;;;;6301870;22;20025;-84
2022/09/07 23:27:06;;;;;;;23.10;18.35;;;;;;;;;;6250935;22;20034;-85
2022/09/07 23:29:32;;;;;;;22.35;18.52;;;;;;;;;;6275961;22;20023;-84
2022/09/07 23:31:58;;;;;;;19.90;17.60;;;;;;;;;;6274100;22;20023;-86
2022/09/07 23:34:25;;;;;;;20.60;18.42;;;;;;;;;;6275593;22;20026;-87
2022/09/07 23:37:12;;;;;;;20.75;18.50;;;18.40;99.90;;;;;;6273518;22;20045;-85
2022/09/07 23:39:40;;;;;;;22.73;19.67;;;;;;;;;;6252752;22;20027;-88
2022/09/07 23:42:06;;;;;;;26.30;22.67;;;;;;;;;;6273575;22;20093;-83
2022/09/07 23:44:32;;;;;;;27.70;23.75;;;;;;;;;;6275083;22;20026;-85
2022/09/07 23:46:58;;;;;;;28.55;25.75;;;;;;;;;;6300272;22;20348;-85
2022/09/07 23:49:24;;;;;;;33.00;28.50;;;;;;;;;;6270619;22;20077;-85
2022/09/07 23:51:51;;;;;;;35.55;31.73;;;;;;;;;;6272765;22;20023;-85
2022/09/07 23:54:17;;;;;;;35.60;31.77;;;;;;;;;;6295635;22;20038;-84
2022/09/07 23:56:43;;;;;;;34.08;30.05;;;;;;;;;;6272062;22;20047;-84
2022/09/07 23:59:09;;;;;;;37.45;33.38;;;;;;;;;;6244042;22;20028;-83
